createdAt,value
2017-05-05T00:02:01.420Z,3.26
2017-05-05T00:04:28.093Z,3.77
2017-05-05T00:06:54.815Z,3.88
2017-05-05T00:09:21.486Z,4.47
2017-05-05T00:11:48.172Z,4.67
2017-05-05T00:14:14.861Z,4.43
2017-05-05T00:16:41.528Z,4.78
2017-05-05T00:19:08.204Z,3.43
2017-05-05T00:21:34.905Z,3.50
2017-05-05T00:24:01.581Z,2.98
2017-05-05T00:26:28.249Z,2.42
2017-05-05T00:28:54.960Z,2.40
2017-05-05T00:31:21.635Z,2.07
2017-05-05T00:33:48.339Z,2.38
2017-05-05T00:36:15.030Z,2.32
2017-05-05T00:38:41.705Z,2.12
2017-05-05T00:41:08.387Z,2.25
2017-05-05T00:43:35.357Z,2.38
2017-05-05T00:46:02.036Z,2.18
2017-05-05T00:48:28.729Z,2.45
2017-05-05T00:50:55.434Z,2.40
2017-05-05T00:53:22.103Z,2.13
2017-05-05T00:55:48.777Z,2.65
2017-05-05T00:58:15.472Z,3.52
2017-05-05T01:00:42.159Z,3.37
2017-05-05T01:03:08.829Z,3.08
2017-05-05T01:05:35.530Z,2.48
2017-05-05T01:08:02.201Z,2.58
2017-05-05T01:10:28.875Z,3.00
2017-05-05T01:12:55.569Z,2.67
2017-05-05T01:15:22.240Z,2.73
2017-05-05T01:17:48.922Z,2.65
2017-05-05T01:20:15.622Z,2.53
2017-05-05T01:22:42.314Z,2.12
2017-05-05T01:25:08.994Z,2.70
2017-05-05T01:27:35.877Z,2.18
2017-05-05T01:30:02.554Z,1.93
2017-05-05T01:32:29.224Z,2.48
2017-05-05T01:34:55.928Z,2.47
2017-05-05T01:37:22.606Z,2.30
2017-05-05T01:39:49.289Z,2.47
2017-05-05T01:42:15.984Z,2.17
2017-05-05T01:44:42.662Z,2.55
2017-05-05T01:47:09.341Z,2.12
2017-05-05T01:49:36.064Z,2.68
2017-05-05T01:52:02.728Z,2.62
2017-05-05T01:54:29.416Z,3.58
2017-05-05T01:56:56.104Z,3.04
2017-05-05T01:59:22.802Z,2.52
2017-05-05T02:01:49.472Z,3.02
2017-05-05T02:04:16.162Z,3.32
2017-05-05T02:06:42.835Z,3.33
2017-05-05T02:09:09.514Z,3.32
2017-05-05T02:11:36.228Z,3.22
2017-05-05T02:14:03.901Z,2.60
2017-05-05T02:16:30.584Z,3.65
2017-05-05T02:18:57.280Z,2.90
2017-05-05T02:21:23.961Z,3.38
2017-05-05T02:23:50.630Z,4.28
2017-05-05T02:26:17.340Z,3.95
2017-05-05T02:28:44.019Z,4.08
2017-05-05T02:31:10.721Z,3.67
2017-05-05T02:33:37.405Z,3.65
2017-05-05T02:36:04.117Z,3.50
2017-05-05T02:38:30.780Z,2.37
2017-05-05T02:40:57.458Z,2.18
2017-05-05T02:43:24.159Z,2.87
2017-05-05T02:45:50.826Z,3.35
2017-05-05T02:48:17.505Z,3.25
2017-05-05T02:50:44.231Z,3.22
2017-05-05T02:53:10.902Z,3.22
2017-05-05T02:55:37.575Z,3.38
2017-05-05T02:58:04.357Z,4.12
2017-05-05T03:00:31.024Z,3.85
2017-05-05T03:02:57.700Z,3.58
2017-05-05T03:05:24.408Z,3.20
2017-05-05T03:07:51.079Z,3.22
2017-05-05T03:10:17.753Z,2.58
2017-05-05T03:12:44.441Z,2.68
2017-05-05T03:15:11.125Z,2.80
2017-05-05T03:17:37.799Z,2.77
2017-05-05T03:20:04.495Z,2.30
2017-05-05T03:22:31.164Z,3.20
2017-05-05T03:24:57.838Z,2.70
2017-05-05T03:27:24.545Z,3.35
2017-05-05T03:29:51.213Z,3.70
2017-05-05T03:32:17.899Z,3.52
2017-05-05T03:34:44.600Z,3.80
2017-05-05T03:37:11.277Z,3.90
2017-05-05T03:39:37.945Z,3.87
2017-05-05T03:42:04.631Z,3.95
2017-05-05T03:44:31.306Z,3.95
2017-05-05T03:46:57.985Z,3.50
2017-05-05T03:49:24.700Z,3.98
2017-05-05T03:51:51.371Z,3.55
2017-05-05T03:54:18.047Z,4.18
2017-05-05T03:56:44.743Z,3.50
2017-05-05T03:59:11.419Z,3.32
2017-05-05T04:01:38.091Z,3.88
2017-05-05T04:04:04.797Z,4.20
2017-05-05T04:06:31.479Z,3.72
2017-05-05T04:08:58.155Z,3.52
2017-05-05T04:11:24.846Z,4.08
2017-05-05T04:13:51.515Z,3.50
2017-05-05T04:16:18.199Z,3.48
2017-05-05T04:18:44.891Z,3.46
2017-05-05T04:21:11.574Z,3.92
2017-05-05T04:23:38.241Z,4.17
2017-05-05T04:26:04.979Z,3.43
2017-05-05T04:28:31.660Z,3.67
2017-05-05T04:30:58.324Z,4.12
2017-05-05T04:33:25.009Z,4.12
2017-05-05T04:35:51.705Z,3.70
2017-05-05T04:38:18.380Z,4.12
2017-05-05T04:40:45.078Z,4.32
2017-05-05T04:43:11.749Z,4.54
2017-05-05T04:45:38.411Z,4.76
2017-05-05T04:48:05.128Z,3.97
2017-05-05T04:50:31.792Z,4.60
2017-05-05T04:52:58.477Z,4.70
2017-05-05T04:55:25.348Z,4.60
2017-05-05T04:57:52.012Z,4.40
2017-05-05T05:00:18.705Z,4.62
2017-05-05T05:02:45.932Z,4.80
2017-05-05T05:05:12.603Z,4.56
2017-05-05T05:07:39.266Z,4.22
2017-05-05T05:10:05.959Z,4.38
2017-05-05T05:12:32.631Z,4.74
2017-05-05T05:14:59.301Z,4.28
2017-05-05T05:17:25.999Z,4.90
2017-05-05T05:19:52.661Z,5.12
2017-05-05T05:22:19.326Z,5.32
2017-05-05T05:24:46.046Z,4.06
2017-05-05T05:27:12.705Z,3.20
2017-05-05T05:29:39.381Z,3.10
2017-05-05T05:32:06.082Z,4.92
2017-05-05T05:34:32.756Z,3.18
2017-05-05T05:36:59.417Z,2.98
2017-05-05T05:39:26.095Z,3.00
2017-05-05T05:41:52.767Z,2.92
2017-05-05T05:44:19.440Z,2.88
2017-05-05T05:46:46.224Z,2.60
2017-05-05T05:49:12.888Z,7.42
2017-05-05T05:51:39.549Z,6.80
2017-05-05T05:54:06.240Z,7.20
2017-05-05T05:56:32.907Z,8.98
2017-05-05T05:58:59.590Z,10.70
2017-05-05T06:01:26.287Z,4.46
2017-05-05T06:03:53.030Z,3.64
2017-05-05T06:06:19.693Z,3.56
2017-05-05T06:08:46.417Z,3.36
2017-05-05T06:11:13.079Z,3.74
2017-05-05T06:13:39.740Z,3.70
2017-05-05T06:16:06.440Z,4.10
2017-05-05T06:18:33.104Z,3.98
2017-05-05T06:20:59.795Z,4.22
2017-05-05T06:23:26.485Z,4.10
2017-05-05T06:25:53.168Z,4.60
2017-05-05T06:28:19.829Z,4.56
2017-05-05T06:30:46.513Z,3.78
2017-05-05T06:33:13.187Z,3.76
2017-05-05T06:35:39.854Z,3.72
2017-05-05T06:38:06.560Z,3.50
2017-05-05T06:40:33.234Z,3.98
2017-05-05T06:42:59.910Z,2.56
2017-05-05T06:45:26.603Z,3.60
2017-05-05T06:47:53.275Z,3.36
2017-05-05T06:50:19.949Z,3.18
2017-05-05T06:52:46.650Z,3.20
2017-05-05T06:55:13.334Z,2.80
2017-05-05T06:57:41.002Z,2.84
2017-05-05T07:00:07.727Z,3.22
2017-05-05T07:02:34.394Z,2.94
2017-05-05T07:05:01.053Z,2.54
2017-05-05T07:07:27.728Z,3.02
2017-05-05T07:09:54.394Z,2.88
2017-05-05T07:12:21.054Z,2.68
2017-05-05T07:14:47.773Z,2.66
2017-05-05T07:17:14.438Z,2.46
2017-05-05T07:19:42.074Z,2.72
2017-05-05T07:22:08.751Z,3.00
2017-05-05T07:24:35.416Z,2.88
2017-05-05T07:27:02.077Z,3.08
2017-05-05T07:29:28.763Z,2.00
2017-05-05T07:31:55.424Z,2.30
2017-05-05T07:34:22.104Z,2.62
2017-05-05T07:36:48.834Z,2.94
2017-05-05T07:39:16.154Z,2.40
2017-05-05T07:41:42.845Z,2.66
2017-05-05T07:44:09.525Z,2.18
2017-05-05T07:46:36.211Z,2.12
2017-05-05T07:49:02.872Z,2.30
2017-05-05T07:51:29.563Z,2.46
2017-05-05T07:53:56.304Z,2.36
2017-05-05T07:56:22.974Z,2.10
2017-05-05T07:58:49.990Z,1.52
2017-05-05T08:01:16.655Z,1.62
2017-05-05T08:03:43.328Z,2.10
2017-05-05T08:06:10.103Z,2.00
2017-05-05T08:08:37.098Z,1.90
2017-05-05T08:11:03.765Z,2.32
2017-05-05T08:13:30.476Z,2.40
2017-05-05T08:15:57.155Z,2.64
2017-05-05T08:18:23.840Z,2.00
2017-05-05T08:20:50.525Z,2.30
2017-05-05T08:23:17.212Z,1.82
2017-05-05T08:25:43.886Z,2.18
2017-05-05T08:28:10.570Z,1.62
2017-05-05T08:30:37.231Z,1.92
2017-05-05T08:33:03.904Z,2.74
2017-05-05T08:35:30.613Z,2.12
2017-05-05T08:37:57.335Z,2.46
2017-05-05T08:40:24.000Z,2.44
2017-05-05T08:42:50.701Z,2.06
2017-05-05T08:45:17.360Z,2.00
2017-05-05T08:47:44.026Z,1.68
2017-05-05T08:50:10.717Z,1.82
2017-05-05T08:52:37.381Z,3.60
2017-05-05T08:55:04.045Z,2.58
2017-05-05T08:57:30.733Z,1.48
2017-05-05T08:59:57.397Z,1.36
2017-05-05T09:02:24.062Z,1.42
2017-05-05T09:04:50.760Z,1.84
2017-05-05T09:07:17.438Z,2.00
2017-05-05T09:09:44.111Z,1.78
2017-05-05T09:12:10.814Z,1.78
2017-05-05T09:14:37.472Z,1.56
2017-05-05T09:17:04.130Z,1.86
2017-05-05T09:19:30.933Z,1.90
2017-05-05T09:21:57.646Z,2.48
2017-05-05T09:24:24.310Z,2.30
2017-05-05T09:26:51.018Z,6.30
2017-05-05T09:29:17.686Z,4.48
2017-05-05T09:31:44.344Z,3.18
2017-05-05T09:34:11.030Z,2.42
2017-05-05T09:36:37.686Z,2.60
2017-05-05T09:39:04.353Z,2.20
2017-05-05T09:41:31.052Z,2.08
2017-05-05T09:43:57.718Z,2.44
2017-05-05T09:46:24.379Z,2.46
2017-05-05T09:48:51.097Z,1.94
2017-05-05T09:51:17.767Z,2.18
2017-05-05T09:53:44.441Z,2.40
2017-05-05T09:56:11.133Z,1.82
2017-05-05T09:58:37.797Z,1.84
2017-05-05T10:01:04.462Z,1.50
2017-05-05T10:03:31.156Z,1.82
2017-05-05T10:05:57.842Z,1.44
2017-05-05T10:08:24.501Z,1.30
2017-05-05T10:10:51.189Z,1.28
2017-05-05T10:13:17.861Z,1.20
2017-05-05T10:15:44.525Z,1.14
2017-05-05T10:18:11.206Z,1.30
2017-05-05T10:20:37.874Z,2.38
2017-05-05T10:23:04.541Z,4.20
2017-05-05T10:25:31.342Z,4.30
2017-05-05T10:27:58.019Z,4.34
2017-05-05T10:30:24.687Z,4.78
2017-05-05T10:32:51.398Z,5.30
2017-05-05T10:35:18.061Z,4.60
2017-05-05T10:37:44.748Z,4.44
2017-05-05T10:40:11.443Z,4.20
2017-05-05T10:42:38.130Z,3.84
2017-05-05T10:45:04.793Z,3.68
2017-05-05T10:47:31.473Z,3.44
2017-05-05T10:49:58.145Z,3.88
2017-05-05T10:52:24.807Z,4.52
2017-05-05T10:54:51.609Z,3.48
2017-05-05T10:57:18.273Z,3.90
2017-05-05T10:59:44.938Z,3.88
2017-05-05T11:02:11.637Z,3.86
2017-05-05T11:04:38.298Z,4.20
2017-05-05T11:07:04.963Z,4.18
2017-05-05T11:09:31.681Z,4.00
2017-05-05T11:11:58.349Z,3.74
2017-05-05T11:14:25.030Z,4.66
2017-05-05T11:16:51.716Z,3.80
2017-05-05T11:19:18.383Z,3.66
2017-05-05T11:21:45.047Z,3.36
2017-05-05T11:24:11.731Z,3.42
2017-05-05T11:26:38.397Z,3.30
2017-05-05T11:29:05.062Z,4.16
2017-05-05T11:31:31.757Z,3.98
2017-05-05T11:33:58.443Z,4.24
2017-05-05T11:36:25.105Z,4.28
2017-05-05T11:38:51.801Z,3.80
2017-05-05T11:41:18.473Z,3.68
2017-05-05T11:43:45.146Z,4.36
2017-05-05T11:46:11.857Z,3.90
2017-05-05T11:48:38.521Z,4.10
2017-05-05T11:51:05.353Z,4.28
2017-05-05T11:53:32.042Z,4.34
2017-05-05T11:55:58.709Z,4.50
2017-05-05T11:58:25.370Z,5.56
2017-05-05T12:00:52.056Z,5.20
2017-05-05T12:03:18.725Z,5.08
2017-05-05T12:05:45.384Z,4.70
2017-05-05T12:08:12.084Z,4.38
2017-05-05T12:10:38.826Z,4.44
2017-05-05T12:13:05.485Z,3.64
2017-05-05T12:15:32.168Z,3.44
2017-05-05T12:17:58.837Z,3.62
2017-05-05T12:20:25.500Z,4.88
2017-05-05T12:22:52.190Z,3.84
2017-05-05T12:25:18.857Z,4.46
2017-05-05T12:27:45.520Z,4.58
2017-05-05T12:30:12.245Z,4.56
2017-05-05T12:32:38.905Z,4.34
2017-05-05T12:35:05.565Z,4.18
2017-05-05T12:37:32.268Z,4.02
2017-05-05T12:39:58.937Z,4.06
2017-05-05T12:42:25.625Z,4.26
2017-05-05T12:44:52.325Z,3.90
2017-05-05T12:47:19.003Z,4.04
2017-05-05T12:49:45.665Z,3.24
2017-05-05T12:52:12.336Z,3.52
2017-05-05T12:54:39.012Z,4.26
2017-05-05T12:57:05.673Z,3.50
2017-05-05T12:59:32.363Z,3.60
2017-05-05T13:01:59.039Z,3.18
2017-05-05T13:04:25.703Z,3.20
2017-05-05T13:06:52.390Z,3.78
2017-05-05T13:09:19.053Z,5.12
2017-05-05T13:11:45.898Z,3.70
2017-05-05T13:14:12.578Z,3.66
2017-05-05T13:16:39.238Z,4.12
2017-05-05T13:19:05.906Z,3.58
2017-05-05T13:21:32.602Z,3.46
2017-05-05T13:23:59.290Z,3.52
2017-05-05T13:26:25.955Z,4.00
2017-05-05T13:28:52.657Z,3.64
2017-05-05T13:31:19.319Z,4.06
2017-05-05T13:33:45.982Z,3.90
2017-05-05T13:36:12.698Z,3.76
2017-05-05T13:38:39.375Z,3.44
2017-05-05T13:41:06.062Z,3.54
2017-05-05T13:43:32.775Z,3.96
2017-05-05T13:45:59.434Z,2.74
2017-05-05T13:48:26.105Z,3.68
2017-05-05T13:50:52.784Z,3.06
2017-05-05T13:53:19.458Z,3.46
2017-05-05T13:55:46.116Z,4.10
2017-05-05T13:58:12.808Z,3.64
2017-05-05T14:00:39.479Z,4.06
2017-05-05T14:03:06.145Z,3.38
2017-05-05T14:05:32.839Z,3.22
2017-05-05T14:08:03.677Z,2.60
2017-05-05T14:10:30.345Z,2.72
2017-05-05T14:12:57.032Z,2.68
2017-05-05T14:15:23.701Z,3.02
2017-05-05T14:17:50.362Z,2.28
2017-05-05T14:20:17.047Z,2.64
2017-05-05T14:22:43.716Z,4.54
2017-05-05T14:25:10.381Z,2.94
2017-05-05T14:27:37.077Z,2.84
2017-05-05T14:30:03.742Z,3.08
2017-05-05T14:32:30.400Z,3.20
2017-05-05T14:34:57.078Z,3.26
2017-05-05T14:37:23.746Z,2.38
2017-05-05T14:39:50.411Z,2.58
2017-05-05T14:42:17.100Z,2.72
2017-05-05T14:44:43.767Z,3.30
2017-05-05T14:47:10.437Z,3.10
2017-05-05T14:49:37.132Z,3.12
2017-05-05T14:52:03.804Z,3.18
2017-05-05T14:54:30.465Z,3.00
2017-05-05T14:56:57.146Z,2.66
2017-05-05T14:59:23.806Z,2.78
2017-05-05T15:01:50.468Z,3.28
2017-05-05T15:04:17.161Z,2.82
2017-05-05T15:06:43.908Z,2.88
2017-05-05T15:09:10.573Z,3.72
2017-05-05T15:11:37.261Z,2.80
2017-05-05T15:14:03.923Z,3.10
2017-05-05T15:16:30.590Z,3.28
2017-05-05T15:18:57.582Z,2.84
2017-05-05T15:21:24.255Z,3.20
2017-05-05T15:23:50.913Z,2.92
2017-05-05T15:26:17.591Z,2.60
2017-05-05T15:28:44.273Z,2.84
2017-05-05T15:31:10.933Z,2.30
2017-05-05T15:33:37.626Z,2.40
2017-05-05T15:36:04.288Z,2.86
2017-05-05T15:38:30.951Z,2.40
2017-05-05T15:40:57.729Z,2.60
2017-05-05T15:43:24.397Z,2.74
2017-05-05T15:45:51.063Z,2.52
2017-05-05T15:48:17.753Z,2.70
2017-05-05T15:50:44.420Z,3.32
2017-05-05T15:53:11.075Z,2.94
2017-05-05T15:55:37.768Z,2.82
2017-05-05T15:58:04.428Z,2.42
2017-05-05T16:00:31.094Z,2.46
2017-05-05T16:02:57.785Z,2.92
2017-05-05T16:05:24.457Z,2.80
2017-05-05T16:07:51.120Z,2.80
2017-05-05T16:10:17.813Z,2.42
2017-05-05T16:12:44.474Z,3.06
2017-05-05T16:15:11.128Z,2.96
2017-05-05T16:17:37.813Z,3.30
2017-05-05T16:20:04.480Z,2.90
2017-05-05T16:22:31.182Z,2.68
2017-05-05T16:24:57.880Z,3.12
2017-05-05T16:27:24.544Z,3.14
2017-05-05T16:29:51.230Z,2.82
2017-05-05T16:32:17.908Z,3.00
2017-05-05T16:34:44.579Z,3.48
2017-05-05T16:37:11.249Z,3.32
2017-05-05T16:39:37.943Z,3.40
2017-05-05T16:42:04.622Z,3.97
2017-05-05T16:44:31.295Z,4.03
2017-05-05T16:46:58.035Z,3.96
2017-05-05T16:49:24.711Z,3.90
2017-05-05T16:51:51.383Z,3.20
2017-05-05T16:54:18.071Z,4.52
2017-05-05T16:56:44.758Z,3.82
2017-05-05T16:59:11.426Z,4.56
2017-05-05T17:01:38.122Z,4.00
2017-05-05T17:04:04.788Z,4.10
2017-05-05T17:06:31.461Z,3.86
2017-05-05T17:08:58.152Z,3.24
2017-05-05T17:11:24.820Z,3.68
2017-05-05T17:13:51.485Z,4.54
2017-05-05T17:16:18.214Z,3.70
2017-05-05T17:18:44.872Z,3.58
2017-05-05T17:21:11.550Z,3.04
2017-05-05T17:23:38.251Z,3.10
2017-05-05T17:26:04.929Z,3.42
2017-05-05T17:28:31.592Z,2.70
2017-05-05T17:30:58.297Z,2.92
2017-05-05T17:33:24.965Z,3.04
2017-05-05T17:35:51.645Z,2.70
2017-05-05T17:38:18.356Z,3.10
2017-05-05T17:40:45.022Z,3.04
2017-05-05T17:43:11.700Z,2.76
2017-05-05T17:45:38.389Z,3.46
2017-05-05T17:48:05.088Z,3.68
2017-05-05T17:50:31.751Z,4.72
2017-05-05T17:52:58.434Z,3.30
2017-05-05T17:55:25.095Z,3.82
2017-05-05T17:57:51.769Z,3.42
2017-05-05T18:00:18.469Z,3.60
2017-05-05T18:02:45.138Z,4.08
2017-05-05T18:05:11.801Z,4.08
2017-05-05T18:07:38.511Z,3.52
2017-05-05T18:10:05.178Z,4.56
2017-05-05T18:12:31.862Z,3.98
2017-05-05T18:14:58.557Z,4.78
2017-05-05T18:17:25.231Z,3.32
2017-05-05T18:19:51.942Z,3.84
2017-05-05T18:22:18.654Z,4.58
2017-05-05T18:24:45.325Z,3.18
2017-05-05T18:27:12.002Z,3.84
2017-05-05T18:29:38.789Z,3.76
2017-05-05T18:32:05.518Z,3.60
2017-05-05T18:34:32.191Z,3.30
2017-05-05T18:36:58.885Z,3.28
2017-05-05T18:39:25.556Z,3.58
2017-05-05T18:41:52.231Z,4.68
2017-05-05T18:44:19.155Z,3.94
2017-05-05T18:46:45.830Z,3.80
2017-05-05T18:49:12.491Z,4.40
2017-05-05T18:51:39.183Z,4.68
2017-05-05T18:54:05.855Z,3.40
2017-05-05T18:56:32.524Z,3.70
2017-05-05T18:58:59.233Z,2.74
2017-05-05T19:01:25.903Z,2.30
2017-05-05T19:03:52.589Z,2.60
2017-05-05T19:06:19.279Z,2.36
2017-05-05T19:08:45.960Z,2.38
2017-05-05T19:11:12.623Z,1.58
2017-05-05T19:13:39.313Z,1.96
2017-05-05T19:16:05.986Z,1.90
2017-05-05T19:18:32.719Z,3.44
2017-05-05T19:20:59.413Z,3.06
2017-05-05T19:23:26.103Z,2.28
2017-05-05T19:25:54.574Z,2.32
2017-05-05T19:28:22.368Z,2.10
2017-05-05T19:30:49.040Z,1.68
2017-05-05T19:33:15.725Z,2.10
2017-05-05T19:35:42.425Z,2.44
2017-05-05T19:38:09.100Z,2.46
2017-05-05T19:40:35.764Z,2.30
2017-05-05T19:43:02.447Z,2.00
2017-05-05T19:45:29.120Z,2.06
2017-05-05T19:47:55.822Z,1.40
2017-05-05T19:50:22.517Z,2.20
2017-05-05T19:52:49.906Z,1.84
2017-05-05T19:55:16.581Z,1.66
2017-05-05T19:57:43.279Z,2.58
2017-05-05T20:00:09.966Z,2.00
2017-05-05T20:02:36.858Z,2.38
2017-05-05T20:05:03.545Z,1.84
2017-05-05T20:07:30.212Z,1.98
2017-05-05T20:09:56.906Z,2.20
2017-05-05T20:12:23.632Z,1.68
2017-05-05T20:14:50.330Z,1.70
2017-05-05T20:17:17.116Z,1.60
2017-05-05T20:19:43.816Z,1.10
2017-05-05T20:22:10.523Z,1.52
2017-05-05T20:24:38.510Z,1.48
2017-05-05T20:27:05.210Z,1.66
2017-05-05T20:29:31.906Z,1.50
2017-05-05T20:31:58.717Z,1.44
2017-05-05T20:34:25.571Z,1.54
2017-05-05T20:36:52.833Z,1.42
2017-05-05T20:39:20.478Z,1.60
2017-05-05T20:41:48.755Z,1.72
2017-05-05T20:44:16.905Z,1.52
2017-05-05T20:46:45.333Z,1.20
2017-05-05T20:49:12.743Z,1.36
2017-05-05T20:51:40.824Z,1.38
2017-05-05T20:54:07.799Z,1.32
2017-05-05T20:56:34.595Z,1.78
2017-05-05T20:59:01.363Z,1.66
2017-05-05T21:01:28.424Z,1.68
2017-05-05T21:03:55.187Z,1.60
2017-05-05T21:06:21.980Z,1.80
2017-05-05T21:08:48.677Z,1.70
2017-05-05T21:11:15.390Z,1.20
2017-05-05T21:13:42.139Z,1.50
2017-05-05T21:16:10.035Z,1.64
2017-05-05T21:18:37.356Z,1.58
2017-05-05T21:21:05.084Z,1.64
2017-05-05T21:23:33.409Z,1.50
2017-05-05T21:26:01.125Z,1.94
2017-05-05T21:28:28.958Z,2.06
2017-05-05T21:30:57.240Z,1.98
2017-05-05T21:33:24.902Z,1.58
2017-05-05T21:35:51.886Z,1.94
2017-05-05T21:38:19.930Z,2.88
2017-05-05T21:40:48.046Z,2.12
2017-05-05T21:43:15.969Z,1.90
2017-05-05T21:45:43.740Z,2.20
2017-05-05T21:48:10.538Z,2.62
2017-05-05T21:50:37.285Z,2.40
2017-05-05T21:53:04.003Z,1.92
2017-05-05T21:55:30.778Z,2.00
2017-05-05T21:57:57.498Z,1.94
2017-05-05T22:00:24.210Z,3.28
2017-05-05T22:02:50.906Z,2.28
2017-05-05T22:05:17.701Z,1.98
2017-05-05T22:07:45.469Z,1.94
2017-05-05T22:10:13.377Z,2.10
2017-05-05T22:12:41.331Z,1.60
2017-05-05T22:15:09.719Z,1.92
2017-05-05T22:17:37.916Z,1.78
2017-05-05T22:20:05.714Z,1.70
2017-05-05T22:22:33.852Z,1.90
2017-05-05T22:25:02.005Z,1.92
2017-05-05T22:27:30.045Z,2.20
2017-05-05T22:29:57.888Z,1.38
2017-05-05T22:32:25.858Z,2.02
2017-05-05T22:34:54.192Z,2.14
2017-05-05T22:37:22.157Z,1.80
2017-05-05T22:39:50.231Z,2.26
2017-05-05T22:42:18.197Z,1.96
2017-05-05T22:44:45.836Z,1.80
2017-05-05T22:47:13.934Z,1.86
2017-05-05T22:49:41.780Z,1.80
2017-05-05T22:52:09.746Z,2.24
2017-05-05T22:54:37.745Z,2.04
2017-05-05T22:57:06.679Z,2.08
2017-05-05T22:59:34.665Z,2.26
2017-05-05T23:02:02.749Z,1.90
2017-05-05T23:04:30.489Z,1.74
2017-05-05T23:06:58.591Z,1.94
2017-05-05T23:09:26.984Z,2.26
2017-05-05T23:11:55.314Z,2.06
2017-05-05T23:14:22.655Z,2.20
2017-05-05T23:16:50.507Z,1.96
2017-05-05T23:19:20.223Z,1.88
2017-05-05T23:21:48.263Z,2.04
2017-05-05T23:24:16.578Z,2.44
2017-05-05T23:26:44.776Z,1.90
2017-05-05T23:29:13.441Z,2.28
2017-05-05T23:31:41.253Z,2.08
2017-05-05T23:34:10.005Z,2.24
2017-05-05T23:36:38.136Z,2.20
2017-05-05T23:39:06.437Z,2.14
2017-05-05T23:41:34.289Z,2.34
2017-05-05T23:44:01.827Z,2.44
2017-05-05T23:46:30.027Z,2.38
2017-05-05T23:48:58.026Z,2.38
2017-05-05T23:51:25.370Z,1.66
2017-05-05T23:53:53.209Z,2.44
2017-05-05T23:56:20.751Z,2.08
2017-05-05T23:58:49.067Z,2.54
